Time;durP1;ratioP1;P1;durP2;ratioP2;P2;SDS_P1;SDS_P2;PMS_P1;PMS_P2;Temp;Humidity;BMP_temperature;BMP_pressure;BME280_temperature;BME280_humidity;BME280_pressure;Samples;Min_cycle;Max_cycle;Signal;HPM_P1;HPM_P2
2022/09/19 00:05:00;;;;;;;2.28;0.45;;;;;;;;;;10399352;28;21131;-78
2022/09/19 00:10:01;;;;;;;0.03;0.03;;;;;;;;;;10400298;28;20241;-77
2022/09/19 00:15:03;;;;;;;0.70;0.55;;;;;;;;;;10367203;28;20218;-79
2022/09/19 00:20:04;;;;;;;0.10;0.10;;;;;;;;;;10393855;28;20246;-80
2022/09/19 00:25:06;;;;;;;0.20;0.10;;;;;;;;;;10382921;28;20702;-80
2022/09/19 00:30:07;;;;;;;0.60;0.10;;;;;;;;;;10403594;28;20178;-79
2022/09/19 00:35:08;;;;;;;0.10;0.10;;;;;;;;;;10392971;28;20205;-79
2022/09/19 00:40:09;;;;;;;0.20;0.20;;;;;;;;;;10370766;28;20233;-79
2022/09/19 00:45:15;;;;;;;0.20;0.20;;;;;;;;;;10390185;28;20341;-79
2022/09/19 00:50:19;;;;;;;0.13;0.13;;;;;;;;;;10357026;28;20346;-79
2022/09/19 00:55:20;;;;;;;0.15;0.15;;;;;;;;;;10391218;28;20287;-79
2022/09/19 01:00:22;;;;;;;0.10;0.10;;;;;;;;;;10397188;28;20231;-82
2022/09/19 01:05:27;;;;;;;0.32;0.30;;;;;;;;;;10380780;28;20211;-80
2022/09/19 01:10:28;;;;;;;0.03;0.03;;;;;;;;;;10365491;28;20224;-80
2022/09/19 01:15:32;;;;;;;0.10;0.10;;;;;;;;;;10363002;28;21041;-78
2022/09/19 01:20:57;;;;;;;0.00;0.00;;;;;;;;;;10373197;28;20230;-79
2022/09/19 01:26:21;;;;;;;0.20;0.20;;;;;;;;;;10382759;28;20216;-81
2022/09/19 01:31:27;;;;;;;0.10;0.10;;;;;;;;;;10354724;28;20218;-79
2022/09/19 01:36:30;;;;;;;0.30;0.30;;;;;;;;;;10339390;28;20227;-80
2022/09/19 01:41:32;;;;;;;0.00;0.00;;;;;;;;;;10355286;28;20221;-79
2022/09/19 01:46:35;;;;;;;0.05;0.05;;;;;;;;;;10356043;28;20587;-79
2022/09/19 01:51:45;;;;;;;0.15;0.15;;;;;;;;;;10401778;28;20239;-79
2022/09/19 01:56:54;;;;;;;0.00;0.00;;;;;;;;;;10402813;28;20208;-79
2022/09/19 02:02:02;;;;;;;0.00;0.00;;;;;;;;;;10385932;28;20219;-81
2022/09/19 02:07:23;;;;;;;0.10;0.05;;;;;;;;;;10401903;28;20941;-80
2022/09/19 02:12:25;;;;;;;1.08;0.88;;;;;;;;;;10404121;28;20214;-79
2022/09/19 02:17:32;;;;;;;0.10;0.10;;;;;;;;;;10360420;28;20297;-75
2022/09/19 02:22:39;;;;;;;0.10;0.10;;;;;;;;;;10392653;28;20238;-77
2022/09/19 02:27:43;;;;;;;0.20;0.20;;;;;;;;;;10401164;28;21072;-78
2022/09/19 02:32:48;;;;;;;1.75;0.30;;;;;;;;;;10371737;28;20211;-77
2022/09/19 02:38:01;;;;;;;0.20;0.20;;;;;;;;;;10373443;28;20218;-76
2022/09/19 02:43:23;;;;;;;0.10;0.10;;;;;;;;;;10376671;28;20305;-76
2022/09/19 02:48:39;;;;;;;0.10;0.10;;;;;;;;;;10376427;28;20319;-76
2022/09/19 02:53:43;;;;;;;0.00;0.00;;;;;;;;;;10349232;28;20211;-77
2022/09/19 02:58:57;;;;;;;0.10;0.10;;;;;;;;;;10352297;28;20279;-77
2022/09/19 03:04:14;;;;;;;0.00;0.00;;;;;;;;;;10384958;28;20289;-78
2022/09/19 03:09:24;;;;;;;0.10;0.10;;;;;;;;;;10381538;28;20211;-75
2022/09/19 03:14:25;;;;;;;0.10;0.10;;;;;;;;;;10380332;28;20215;-76
2022/09/19 03:19:30;;;;;;;0.08;0.08;;;;;;;;;;10365785;28;20301;-77
2022/09/19 03:24:31;;;;;;;0.10;0.10;;;;;;;;;;10380512;28;20211;-76
2022/09/19 03:29:33;;;;;;;0.10;0.10;;;;;;;;;;10397595;28;20221;-77
2022/09/19 03:34:34;;;;;;;0.00;0.00;;;;;;;;;;10381458;28;20219;-76
2022/09/19 03:39:39;;;;;;;0.00;0.00;;;;;;;;;;10380820;28;20220;-76
2022/09/19 03:44:41;;;;;;;0.10;0.10;;;;;;;;;;10382092;28;20818;-78
2022/09/19 03:49:43;;;;;;;0.00;0.00;;;;;;;;;;10382630;28;20214;-78
2022/09/19 03:54:44;;;;;;;0.28;0.28;;;;;;;;;;10362245;28;20211;-80
2022/09/19 03:59:46;;;;;;;0.08;0.08;;;;;;;;;;10376417;28;20334;-80
2022/09/19 04:04:48;;;;;;;0.00;0.00;;;;;;;;;;10373612;28;20294;-79
2022/09/19 04:09:49;;;;;;;0.00;0.00;;;;;;;;;;10364874;28;20737;-79
2022/09/19 04:14:52;;;;;;;0.00;0.00;;;;;;;;;;10350531;28;20215;-78
2022/09/19 04:19:55;;;;;;;0.52;0.52;;;;;;;;;;10361050;28;20261;-78
2022/09/19 04:25:10;;;;;;;0.10;0.10;;;;;;;;;;10379596;28;20218;-79
2022/09/19 04:30:38;;;;;;;0.00;0.00;;;;;;;;;;10398835;28;20217;-80
2022/09/19 04:35:43;;;;;;;0.00;0.00;;;;;;;;;;10361879;28;20211;-82
2022/09/19 04:40:47;;;;;;;0.00;0.00;;;;;;;;;;10380271;28;20733;-76
2022/09/19 04:45:49;;;;;;;0.20;0.10;;;;;;;;;;10358782;28;20305;-76
2022/09/19 04:51:00;;;;;;;0.10;0.10;;;;;;;;;;10380974;28;20215;-76
2022/09/19 04:56:01;;;;;;;0.73;0.73;;;;;;;;;;10370947;28;20227;-81
2022/09/19 05:01:02;;;;;;;0.20;0.20;;;;;;;;;;10383001;28;20222;-76
2022/09/19 05:06:06;;;;;;;0.22;0.22;;;;;;;;;;10364390;28;20215;-76
2022/09/19 05:11:08;;;;;;;0.28;0.28;;;;;;;;;;10360880;28;20215;-76
2022/09/19 05:16:13;;;;;;;0.20;0.20;;;;;;;;;;10363594;28;20221;-76
2022/09/19 05:21:17;;;;;;;0.50;0.32;;;;;;;;;;10369117;28;20956;-76
2022/09/19 05:26:19;;;;;;;0.55;0.25;;;;;;;;;;10375362;28;20211;-74
2022/09/19 05:31:25;;;;;;;0.10;0.10;;;;;;;;;;10368194;28;20644;-77
2022/09/19 05:36:47;;;;;;;1.10;0.55;;;;;;;;;;10387889;28;20267;-76
2022/09/19 05:42:07;;;;;;;0.30;0.30;;;;;;;;;;10399249;28;20900;-78
2022/09/19 05:47:10;;;;;;;0.43;0.43;;;;;;;;;;10385527;28;20671;-76
2022/09/19 05:57:34;;;;;;;0.47;0.47;;;;;;;;;;10366053;28;20662;-77
2022/09/19 06:02:35;;;;;;;0.63;0.63;;;;;;;;;;10408535;28;20231;-77
2022/09/19 06:07:38;;;;;;;0.20;0.20;;;;;;;;;;10370966;28;20314;-76
2022/09/19 06:12:40;;;;;;;0.50;0.50;;;;;;;;;;10378264;28;20211;-75
2022/09/19 06:17:41;;;;;;;1.65;0.38;;;;;;;;;;10370470;28;20211;-76
2022/09/19 06:23:12;;;;;;;1.33;0.45;;;;;;;;;;10344105;28;20219;-76
2022/09/19 06:28:13;;;;;;;0.40;0.40;;;;;;;;;;10371035;28;20222;-77
2022/09/19 06:33:31;;;;;;;2.50;0.40;;;;;;;;;;10381364;28;20694;-76
2022/09/19 06:38:35;;;;;;;0.35;0.35;;;;;;;;;;10395268;28;20440;-81
2022/09/19 06:44:14;;;;;;;0.57;0.57;;;;;;;;;;10395773;28;20513;-76
2022/09/19 06:49:35;;;;;;;0.45;0.35;;;;;;;;;;10396668;28;20218;-83
2022/09/19 06:54:59;;;;;;;1.75;0.70;;;;;;;;;;10375493;28;20622;-80
2022/09/19 07:00:02;;;;;;;0.25;0.20;;;;;;;;;;10383370;28;20250;-79
2022/09/19 07:05:06;;;;;;;0.40;0.40;;;;;;;;;;10367993;28;20279;-84
2022/09/19 07:10:20;;;;;;;0.47;0.38;;;;;;;;;;10358095;28;20286;-80
2022/09/19 07:15:21;;;;;;;0.15;0.15;;;;;;;;;;10359066;28;20195;-83
2022/09/19 07:20:23;;;;;;;0.10;0.10;;;;;;;;;;10394821;28;20211;-82
2022/09/19 07:25:43;;;;;;;0.75;0.30;;;;;;;;;;10383846;28;20219;-82
2022/09/19 07:30:46;;;;;;;0.20;0.20;;;;;;;;;;10383510;28;20704;-84
2022/09/19 07:35:51;;;;;;;0.20;0.20;;;;;;;;;;10382748;28;20218;-81
2022/09/19 07:40:53;;;;;;;0.43;0.20;;;;;;;;;;10381953;28;20208;-80
2022/09/19 07:46:04;;;;;;;0.08;0.08;;;;;;;;;;10379094;28;20305;-84
2022/09/19 07:51:14;;;;;;;1.55;0.28;;;;;;;;;;10375938;28;20215;-82
2022/09/19 07:56:15;;;;;;;0.30;0.30;;;;;;;;;;10355616;28;20836;-79
2022/09/19 08:01:17;;;;;;;1.13;0.35;;;;;;;;;;10372313;28;20261;-80
2022/09/19 08:06:37;;;;;;;0.10;0.10;;;;;;;;;;10373719;28;20210;-82
2022/09/19 08:11:40;;;;;;;0.20;0.20;;;;;;;;;;10353068;28;20699;-79
2022/09/19 08:16:43;;;;;;;0.30;0.30;;;;;;;;;;10313763;28;20228;-81
2022/09/19 08:21:45;;;;;;;0.20;0.20;;;;;;;;;;10324380;28;20259;-80
2022/09/19 08:26:46;;;;;;;0.98;0.32;;;;;;;;;;10333136;28;20302;-78
2022/09/19 08:31:48;;;;;;;1.48;0.65;;;;;;;;;;10328356;28;20211;-81
2022/09/19 08:36:49;;;;;;;0.00;0.00;;;;;;;;;;10339618;28;20281;-80
2022/09/19 08:42:03;;;;;;;0.20;0.20;;;;;;;;;;10341321;28;20708;-79
2022/09/19 08:47:09;;;;;;;0.00;0.00;;;;;;;;;;10334339;28;20291;-81
2022/09/19 08:52:18;;;;;;;0.10;0.10;;;;;;;;;;10341205;28;20226;-79
2022/09/19 08:57:27;;;;;;;0.10;0.10;;;;;;;;;;10327458;28;20331;-80
2022/09/19 09:02:37;;;;;;;0.20;0.20;;;;;;;;;;10343724;28;20767;-79
2022/09/19 09:07:40;;;;;;;16.77;0.93;;;;;;;;;;10347106;28;20850;-79
2022/09/19 09:13:09;;;;;;;0.43;0.43;;;;;;;;;;10368890;28;20213;-80
2022/09/19 09:18:23;;;;;;;0.20;0.20;;;;;;;;;;10381507;28;20230;-79
2022/09/19 09:23:33;;;;;;;0.17;0.17;;;;;;;;;;10388028;28;20222;-79
2022/09/19 09:29:11;;;;;;;0.10;0.10;;;;;;;;;;10367193;28;20506;-81
2022/09/19 09:34:43;;;;;;;0.10;0.10;;;;;;;;;;10352174;28;20222;-79
2022/09/19 09:39:59;;;;;;;0.10;0.10;;;;;;;;;;10385530;28;20238;-81
2022/09/19 09:45:03;;;;;;;0.10;0.10;;;;;;;;;;10377270;28;20657;-82
2022/09/19 09:50:28;;;;;;;0.13;0.13;;;;;;;;;;10356327;28;20667;-78
2022/09/19 10:06:44;;;;;;;0.00;0.00;;;;;;;;;;10367596;28;20641;-77
2022/09/19 10:11:56;;;;;;;1.00;0.20;;;;;;;;;;10321477;28;20232;-80
2022/09/19 10:17:01;;;;;;;1.17;0.65;;;;;;;;;;10315955;28;20219;-80
2022/09/19 10:22:15;;;;;;;0.10;0.10;;;;;;;;;;10306696;28;20229;-79
2022/09/19 10:27:31;;;;;;;0.10;0.10;;;;;;;;;;10318772;28;20631;-79
2022/09/19 10:32:37;;;;;;;0.00;0.00;;;;;;;;;;10290303;28;20219;-80
2022/09/19 10:37:38;;;;;;;0.00;0.00;;;;;;;;;;10325385;28;20239;-81
2022/09/19 10:42:41;;;;;;;0.00;0.00;;;;;;;;;;10315072;28;20228;-81
2022/09/19 10:47:47;;;;;;;0.00;0.00;;;;;;;;;;10306760;28;20230;-80
2022/09/19 10:52:59;;;;;;;0.00;0.00;;;;;;;;;;10299449;28;20220;-82
2022/09/19 10:58:06;;;;;;;0.10;0.10;;;;;;;;;;10310257;28;20208;-79
2022/09/19 11:03:23;;;;;;;0.03;0.03;;;;;;;;;;10321594;28;20258;-79
2022/09/19 11:08:27;;;;;;;0.00;0.00;;;;;;;;;;10310608;28;20585;-81
2022/09/19 11:13:33;;;;;;;0.00;0.00;;;;;;;;;;10341454;28;20219;-79
2022/09/19 11:18:57;;;;;;;0.00;0.00;;;;;;;;;;10358908;28;20726;-81
2022/09/19 11:24:05;;;;;;;1.25;0.68;;;;;;;;;;10357917;28;20312;-80
2022/09/19 11:29:26;;;;;;;0.00;0.00;;;;;;;;;;10373552;28;20280;-80
2022/09/19 11:34:30;;;;;;;0.00;0.00;;;;;;;;;;10380717;28;20211;-78
2022/09/19 11:39:48;;;;;;;0.30;0.30;;;;;;;;;;10381220;28;20309;-78
2022/09/19 11:45:01;;;;;;;0.00;0.00;;;;;;;;;;10346690;28;20401;-81
2022/09/19 11:50:21;;;;;;;0.00;0.00;;;;;;;;;;10355942;28;20355;-81
2022/09/19 11:55:38;;;;;;;1.63;1.50;;;;;;;;;;10365346;28;20214;-80
2022/09/19 12:00:55;;;;;;;0.00;0.00;;;;;;;;;;10371347;28;20221;-81
2022/09/19 12:06:16;;;;;;;0.25;0.25;;;;;;;;;;10395601;28;20237;-79
2022/09/19 12:11:21;;;;;;;0.00;0.00;;;;;;;;;;10353504;28;20247;-77
2022/09/19 12:16:25;;;;;;;0.00;0.00;;;;;;;;;;10360717;28;20365;-78
2022/09/19 12:21:38;;;;;;;1.30;0.88;;;;;;;;;;10371852;28;20803;-77
2022/09/19 12:26:49;;;;;;;0.00;0.00;;;;;;;;;;10378008;28;20623;-78
2022/09/19 12:31:56;;;;;;;0.00;0.00;;;;;;;;;;10377097;28;20246;-77
2022/09/19 12:37:00;;;;;;;0.10;0.10;;;;;;;;;;10337154;28;21340;-76
2022/09/19 12:42:08;;;;;;;4.30;1.52;;;;;;;;;;10341898;28;20314;-77
2022/09/19 12:47:13;;;;;;;0.00;0.00;;;;;;;;;;10336094;28;20309;-78
2022/09/19 12:52:41;;;;;;;0.00;0.00;;;;;;;;;;10343045;28;20285;-76
2022/09/19 12:57:46;;;;;;;0.00;0.00;;;;;;;;;;10376374;28;20779;-80
2022/09/19 13:02:51;;;;;;;0.00;0.00;;;;;;;;;;10360089;28;20284;-81
2022/09/19 13:07:58;;;;;;;0.45;0.45;;;;;;;;;;10377250;28;20237;-81
2022/09/19 13:12:59;;;;;;;0.00;0.00;;;;;;;;;;10369411;28;20220;-78
2022/09/19 13:23:32;;;;;;;0.00;0.00;;;;;;;;;;10351304;28;20227;-79
2022/09/19 13:28:44;;;;;;;0.00;0.00;;;;;;;;;;10380982;28;20596;-82
2022/09/19 13:33:45;;;;;;;0.08;0.00;;;;;;;;;;10386777;28;20612;-79
2022/09/19 13:38:48;;;;;;;0.00;0.00;;;;;;;;;;10377604;28;20214;-78
2022/09/19 13:44:05;;;;;;;0.00;0.00;;;;;;;;;;10399050;28;20249;-78
2022/09/19 13:49:18;;;;;;;0.20;0.20;;;;;;;;;;10392900;28;20272;-78
2022/09/19 13:54:23;;;;;;;0.20;0.20;;;;;;;;;;10386981;28;21183;-83
2022/09/19 13:59:35;;;;;;;0.30;0.30;;;;;;;;;;10373075;28;20758;-78
2022/09/19 14:04:54;;;;;;;0.15;0.15;;;;;;;;;;10356355;28;20231;-78
2022/09/19 14:10:06;;;;;;;0.13;0.13;;;;;;;;;;10380277;28;20278;-79
2022/09/19 14:15:25;;;;;;;1.98;0.20;;;;;;;;;;10396965;28;20613;-78
2022/09/19 14:20:48;;;;;;;10.60;0.20;;;;;;;;;;10399817;28;20236;-79
2022/09/19 14:25:55;;;;;;;0.00;0.00;;;;;;;;;;10406336;28;20257;-77
2022/09/19 14:30:56;;;;;;;0.00;0.00;;;;;;;;;;10381640;28;20236;-77
2022/09/19 14:36:07;;;;;;;0.00;0.00;;;;;;;;;;10371648;28;20223;-77
2022/09/19 14:41:20;;;;;;;0.00;0.00;;;;;;;;;;10380327;28;20218;-78
2022/09/19 14:46:28;;;;;;;0.00;0.00;;;;;;;;;;10356421;28;20214;-78
2022/09/19 14:51:51;;;;;;;0.10;0.10;;;;;;;;;;10390212;28;20226;-78
2022/09/19 14:57:00;;;;;;;0.00;0.00;;;;;;;;;;10381529;28;20222;-77
2022/09/19 15:02:12;;;;;;;0.00;0.00;;;;;;;;;;10387500;28;20478;-77
2022/09/19 15:07:15;;;;;;;0.00;0.00;;;;;;;;;;10364342;28;20218;-77
2022/09/19 15:12:27;;;;;;;0.00;0.00;;;;;;;;;;10385321;28;20222;-77
2022/09/19 15:17:33;;;;;;;0.00;0.00;;;;;;;;;;10353476;28;20210;-76
2022/09/19 15:22:36;;;;;;;0.00;0.00;;;;;;;;;;10369617;28;20855;-77
2022/09/19 15:27:46;;;;;;;0.00;0.00;;;;;;;;;;10386298;28;20675;-77
2022/09/19 15:32:49;;;;;;;0.00;0.00;;;;;;;;;;10337759;28;20596;-78
2022/09/19 15:37:51;;;;;;;0.00;0.00;;;;;;;;;;10380614;28;21512;-78
2022/09/19 15:42:57;;;;;;;0.00;0.00;;;;;;;;;;10378664;28;20254;-78
2022/09/19 15:48:00;;;;;;;0.00;0.00;;;;;;;;;;10375692;28;20682;-78
2022/09/19 15:53:01;;;;;;;0.00;0.00;;;;;;;;;;10370210;28;21209;-78
2022/09/19 15:58:03;;;;;;;0.00;0.00;;;;;;;;;;10378580;28;20219;-78
2022/09/19 16:03:05;;;;;;;0.05;0.05;;;;;;;;;;10356675;28;20697;-78
2022/09/19 16:13:48;;;;;;;0.00;0.00;;;;;;;;;;10377133;28;20238;-78
2022/09/19 16:18:49;;;;;;;0.20;0.20;;;;;;;;;;10375766;28;20463;-77
2022/09/19 16:23:51;;;;;;;0.00;0.00;;;;;;;;;;10359525;28;20354;-78
2022/09/19 16:28:54;;;;;;;0.00;0.00;;;;;;;;;;10355796;28;20222;-77
2022/09/19 16:34:00;;;;;;;0.00;0.00;;;;;;;;;;10353679;28;20219;-77
2022/09/19 16:39:07;;;;;;;0.10;0.10;;;;;;;;;;10353382;28;20215;-76
2022/09/19 16:44:17;;;;;;;0.00;0.00;;;;;;;;;;10393649;28;20227;-77
2022/09/19 16:49:18;;;;;;;0.00;0.00;;;;;;;;;;10388025;28;20219;-78
2022/09/19 16:54:20;;;;;;;0.10;0.10;;;;;;;;;;10373928;28;20217;-78
2022/09/19 16:59:27;;;;;;;0.00;0.00;;;;;;;;;;10343634;28;20234;-78
2022/09/19 17:04:28;;;;;;;0.00;0.00;;;;;;;;;;10374680;28;20795;-77
2022/09/19 17:09:30;;;;;;;0.00;0.00;;;;;;;;;;10367844;28;20235;-77
2022/09/19 17:14:31;;;;;;;0.00;0.00;;;;;;;;;;10378673;28;20211;-78
2022/09/19 17:19:32;;;;;;;0.10;0.10;;;;;;;;;;10379402;28;20583;-77
2022/09/19 17:24:33;;;;;;;0.10;0.10;;;;;;;;;;10380587;28;20226;-77
2022/09/19 17:29:34;;;;;;;0.28;0.28;;;;;;;;;;10358469;28;20242;-77
2022/09/19 17:34:35;;;;;;;0.00;0.00;;;;;;;;;;10378740;28;20929;-76
2022/09/19 17:39:36;;;;;;;0.00;0.00;;;;;;;;;;10383902;28;20220;-77
2022/09/19 17:44:42;;;;;;;0.03;0.03;;;;;;;;;;10386898;28;20710;-77
2022/09/19 17:49:43;;;;;;;0.00;0.00;;;;;;;;;;10389966;28;20561;-76
2022/09/19 17:54:44;;;;;;;0.00;0.00;;;;;;;;;;10380527;28;20262;-78
2022/09/19 17:59:47;;;;;;;0.00;0.00;;;;;;;;;;10383015;28;20473;-77
2022/09/19 18:04:48;;;;;;;0.10;0.10;;;;;;;;;;10368355;28;20227;-76
2022/09/19 18:09:49;;;;;;;0.10;0.10;;;;;;;;;;10391025;28;20219;-77
2022/09/19 18:14:50;;;;;;;0.20;0.20;;;;;;;;;;10393543;28;20918;-78
2022/09/19 18:19:51;;;;;;;0.30;0.30;;;;;;;;;;10372892;28;20416;-78
2022/09/19 18:24:53;;;;;;;0.00;0.00;;;;;;;;;;10379711;28;20243;-80
2022/09/19 18:29:54;;;;;;;0.08;0.08;;;;;;;;;;10364381;28;20295;-81
2022/09/19 18:34:55;;;;;;;1.75;0.65;;;;;;;;;;10385056;28;20245;-82
2022/09/19 18:39:57;;;;;;;0.08;0.08;;;;;;;;;;10393741;28;20310;-79
2022/09/19 18:44:58;;;;;;;0.03;0.03;;;;;;;;;;10382860;28;20211;-80
2022/09/19 18:50:00;;;;;;;0.00;0.00;;;;;;;;;;10379156;28;20752;-80
2022/09/19 18:55:01;;;;;;;0.00;0.00;;;;;;;;;;10377400;28;20200;-80
2022/09/19 19:00:03;;;;;;;0.10;0.10;;;;;;;;;;10381089;28;20206;-80
2022/09/19 19:05:05;;;;;;;1.13;0.30;;;;;;;;;;10341444;28;20928;-81
2022/09/19 19:10:08;;;;;;;0.00;0.00;;;;;;;;;;10382734;28;20235;-80
2022/09/19 19:15:09;;;;;;;0.10;0.10;;;;;;;;;;10381149;28;20254;-78
2022/09/19 19:20:10;;;;;;;0.00;0.00;;;;;;;;;;10372034;28;20172;-79
2022/09/19 19:25:11;;;;;;;0.00;0.00;;;;;;;;;;10342822;28;20195;-79
2022/09/19 19:30:13;;;;;;;0.00;0.00;;;;;;;;;;10365125;28;20172;-79
2022/09/19 19:35:14;;;;;;;0.00;0.00;;;;;;;;;;10365473;28;20194;-79
2022/09/19 19:40:15;;;;;;;0.00;0.00;;;;;;;;;;10343590;28;20371;-81
2022/09/19 19:45:16;;;;;;;0.52;0.52;;;;;;;;;;10376943;28;20220;-80
2022/09/19 19:50:17;;;;;;;0.10;0.10;;;;;;;;;;10367481;28;20176;-78
2022/09/19 19:55:18;;;;;;;0.00;0.00;;;;;;;;;;10391434;28;20612;-79
2022/09/19 20:00:19;;;;;;;0.00;0.00;;;;;;;;;;10377713;28;20207;-78
2022/09/19 20:05:20;;;;;;;0.00;0.00;;;;;;;;;;10371825;28;21020;-80
2022/09/19 20:10:22;;;;;;;0.00;0.00;;;;;;;;;;10391417;28;20225;-80
2022/09/19 20:15:23;;;;;;;0.00;0.00;;;;;;;;;;10387370;28;20719;-78
2022/09/19 20:20:25;;;;;;;0.00;0.00;;;;;;;;;;10388899;28;20243;-79
2022/09/19 20:25:26;;;;;;;0.00;0.00;;;;;;;;;;10392535;28;20219;-78
2022/09/19 20:30:28;;;;;;;0.00;0.00;;;;;;;;;;10393721;28;20317;-77
2022/09/19 20:35:30;;;;;;;0.00;0.00;;;;;;;;;;10363845;28;20219;-78
2022/09/19 20:40:32;;;;;;;0.17;0.17;;;;;;;;;;10388674;28;20902;-78
2022/09/19 20:45:33;;;;;;;0.20;0.20;;;;;;;;;;10391948;28;20711;-79
2022/09/19 20:50:34;;;;;;;0.00;0.00;;;;;;;;;;10394171;28;20298;-78
2022/09/19 20:55:35;;;;;;;0.00;0.00;;;;;;;;;;10404614;28;20214;-77
2022/09/19 21:00:37;;;;;;;0.00;0.00;;;;;;;;;;10399101;28;20227;-78
2022/09/19 21:05:39;;;;;;;8.23;0.10;;;;;;;;;;10371910;28;20219;-79
2022/09/19 21:10:41;;;;;;;0.22;0.10;;;;;;;;;;10372064;28;20302;-78
2022/09/19 21:15:42;;;;;;;0.63;0.63;;;;;;;;;;10368033;28;20231;-78
2022/09/19 21:20:43;;;;;;;0.00;0.00;;;;;;;;;;10393574;28;20834;-77
2022/09/19 21:25:44;;;;;;;0.00;0.00;;;;;;;;;;10385325;28;20237;-79
2022/09/19 21:30:48;;;;;;;0.00;0.00;;;;;;;;;;10405347;28;20699;-78
2022/09/19 21:35:49;;;;;;;0.00;0.00;;;;;;;;;;10391966;28;20796;-78
2022/09/19 21:41:04;;;;;;;0.00;0.00;;;;;;;;;;10397647;28;20439;-78
2022/09/19 21:46:13;;;;;;;0.00;0.00;;;;;;;;;;10400247;28;20219;-78
2022/09/19 21:51:18;;;;;;;0.00;0.00;;;;;;;;;;10392387;28;20207;-79
2022/09/19 21:56:20;;;;;;;0.00;0.00;;;;;;;;;;10377509;28;20242;-79
2022/09/19 22:01:22;;;;;;;0.03;0.03;;;;;;;;;;10362196;28;20227;-77
2022/09/19 22:06:25;;;;;;;0.10;0.10;;;;;;;;;;10348942;28;20225;-79
2022/09/19 22:11:28;;;;;;;0.10;0.10;;;;;;;;;;10363068;28;20219;-78
2022/09/19 22:16:30;;;;;;;0.22;0.22;;;;;;;;;;10398023;28;20219;-78
2022/09/19 22:21:33;;;;;;;1.98;1.35;;;;;;;;;;10399794;28;20223;-78
2022/09/19 22:26:34;;;;;;;0.10;0.10;;;;;;;;;;10391456;28;20215;-79
2022/09/19 22:31:35;;;;;;;0.00;0.00;;;;;;;;;;10393706;28;20563;-79
2022/09/19 22:36:36;;;;;;;0.20;0.20;;;;;;;;;;10387349;28;20235;-78
2022/09/19 22:41:37;;;;;;;0.10;0.10;;;;;;;;;;10391218;28;20223;-79
2022/09/19 22:46:38;;;;;;;0.10;0.10;;;;;;;;;;10397356;28;20714;-79
2022/09/19 22:51:40;;;;;;;0.00;0.00;;;;;;;;;;10389736;28;20234;-79
2022/09/19 22:56:41;;;;;;;0.25;0.25;;;;;;;;;;10379268;28;20945;-79
2022/09/19 23:01:42;;;;;;;0.22;0.15;;;;;;;;;;10402502;28;20231;-79
2022/09/19 23:06:43;;;;;;;0.00;0.00;;;;;;;;;;10391605;28;20304;-78
2022/09/19 23:11:45;;;;;;;7.57;0.22;;;;;;;;;;10379511;28;20281;-79
2022/09/19 23:16:46;;;;;;;0.55;0.43;;;;;;;;;;10358581;28;20227;-78
2022/09/19 23:21:49;;;;;;;0.40;0.40;;;;;;;;;;10399732;28;20229;-78
2022/09/19 23:26:51;;;;;;;0.00;0.00;;;;;;;;;;10365886;28;20219;-78
2022/09/19 23:31:52;;;;;;;0.00;0.00;;;;;;;;;;10406415;28;20723;-78
2022/09/19 23:36:53;;;;;;;0.13;0.13;;;;;;;;;;10396724;28;20254;-76
2022/09/19 23:41:55;;;;;;;0.10;0.10;;;;;;;;;;10400025;28;20584;-76
2022/09/19 23:46:56;;;;;;;0.00;0.00;;;;;;;;;;10405476;28;20214;-77
2022/09/19 23:51:57;;;;;;;0.47;0.10;;;;;;;;;;10399238;28;20219;-76
2022/09/19 23:56:58;;;;;;;0.10;0.10;;;;;;;;;;10378043;28;20273;-75
